sensor_id;sensor_type;location;lat;lon;timestamp;pressure;altitude;pressure_sealevel;temperature;humidity
47811;BME280;33575;52.600;7.318;2023-03-22T00:00:22;100713.68;;;9.88;98.46
47811;BME280;33575;52.600;7.318;2023-03-22T00:02:54;100714.43;;;9.82;98.48
47811;BME280;33575;52.600;7.318;2023-03-22T00:05:23;100708.42;;;9.87;98.39
47811;BME280;33575;52.600;7.318;2023-03-22T00:07:53;100705.64;;;9.97;98.00
47811;BME280;33575;52.600;7.318;2023-03-22T00:10:24;100700.91;;;10.06;97.69
47811;BME280;33575;52.600;7.318;2023-03-22T00:12:54;100697.79;;;10.10;97.61
47811;BME280;33575;52.600;7.318;2023-03-22T00:15:25;100697.23;;;10.03;97.93
47811;BME280;33575;52.600;7.318;2023-03-22T00:17:55;100695.98;;;10.04;98.07
47811;BME280;33575;52.600;7.318;2023-03-22T00:20:26;100694.23;;;10.05;98.09
47811;BME280;33575;52.600;7.318;2023-03-22T00:22:56;100697.84;;;10.16;97.47
47811;BME280;33575;52.600;7.318;2023-03-22T00:25:26;100693.06;;;10.10;97.67
47811;BME280;33575;52.600;7.318;2023-03-22T00:27:56;100691.78;;;10.11;97.63
47811;BME280;33575;52.600;7.318;2023-03-22T00:30:27;100687.90;;;10.08;97.67
47811;BME280;33575;52.600;7.318;2023-03-22T00:32:57;100690.04;;;10.13;97.45
47811;BME280;33575;52.600;7.318;2023-03-22T00:35:28;100684.81;;;10.08;97.52
47811;BME280;33575;52.600;7.318;2023-03-22T00:37:58;100685.51;;;10.07;97.50
47811;BME280;33575;52.600;7.318;2023-03-22T00:40:29;100680.09;;;10.20;97.01
47811;BME280;33575;52.600;7.318;2023-03-22T00:42:59;100682.92;;;10.28;96.59
47811;BME280;33575;52.600;7.318;2023-03-22T00:45:30;100678.56;;;10.25;96.50
47811;BME280;33575;52.600;7.318;2023-03-22T00:48:00;100673.47;;;10.31;96.11
47811;BME280;33575;52.600;7.318;2023-03-22T00:50:31;100672.80;;;10.27;96.12
47811;BME280;33575;52.600;7.318;2023-03-22T00:53:01;100669.65;;;10.23;96.13
47811;BME280;33575;52.600;7.318;2023-03-22T00:55:31;100668.55;;;10.23;95.93
47811;BME280;33575;52.600;7.318;2023-03-22T00:58:02;100669.11;;;10.18;95.90
47811;BME280;33575;52.600;7.318;2023-03-22T01:00:32;100668.48;;;10.17;95.82
47811;BME280;33575;52.600;7.318;2023-03-22T01:03:03;100671.73;;;10.26;95.54
47811;BME280;33575;52.600;7.318;2023-03-22T01:05:34;100664.82;;;10.26;95.35
47811;BME280;33575;52.600;7.318;2023-03-22T01:08:04;100668.43;;;10.20;95.24
47811;BME280;33575;52.600;7.318;2023-03-22T01:10:35;100669.38;;;10.23;94.76
47811;BME280;33575;52.600;7.318;2023-03-22T01:13:05;100668.61;;;10.17;94.93
47811;BME280;33575;52.600;7.318;2023-03-22T01:15:35;100666.67;;;10.20;94.78
47811;BME280;33575;52.600;7.318;2023-03-22T01:18:06;100663.44;;;10.03;94.91
47811;BME280;33575;52.600;7.318;2023-03-22T01:20:36;100664.92;;;10.07;94.70
47811;BME280;33575;52.600;7.318;2023-03-22T01:23:07;100663.12;;;10.11;94.78
47811;BME280;33575;52.600;7.318;2023-03-22T01:25:37;100661.02;;;10.02;94.87
47811;BME280;33575;52.600;7.318;2023-03-22T01:28:08;100659.84;;;10.05;94.67
47811;BME280;33575;52.600;7.318;2023-03-22T01:30:39;100660.84;;;10.08;94.73
47811;BME280;33575;52.600;7.318;2023-03-22T01:33:08;100659.69;;;10.08;94.84
47811;BME280;33575;52.600;7.318;2023-03-22T01:35:39;100659.71;;;10.11;94.64
47811;BME280;33575;52.600;7.318;2023-03-22T01:38:09;100657.10;;;10.15;94.39
47811;BME280;33575;52.600;7.318;2023-03-22T01:40:40;100651.41;;;10.15;94.58
47811;BME280;33575;52.600;7.318;2023-03-22T01:43:13;100651.49;;;10.15;94.61
47811;BME280;33575;52.600;7.318;2023-03-22T01:45:42;100650.77;;;10.18;94.64
47811;BME280;33575;52.600;7.318;2023-03-22T01:48:17;100650.19;;;10.17;94.72
47811;BME280;33575;52.600;7.318;2023-03-22T01:50:47;100645.05;;;10.09;94.50
47811;BME280;33575;52.600;7.318;2023-03-22T01:53:13;100641.84;;;10.13;94.61
47811;BME280;33575;52.600;7.318;2023-03-22T01:55:42;100639.02;;;10.06;94.65
47811;BME280;33575;52.600;7.318;2023-03-22T01:58:14;100632.90;;;9.95;95.31
47811;BME280;33575;52.600;7.318;2023-03-22T02:00:44;100628.98;;;10.05;94.88
47811;BME280;33575;52.600;7.318;2023-03-22T02:03:14;100624.94;;;10.02;94.84
47811;BME280;33575;52.600;7.318;2023-03-22T02:05:44;100621.35;;;9.98;94.83
47811;BME280;33575;52.600;7.318;2023-03-22T02:08:14;100616.67;;;9.97;94.64
47811;BME280;33575;52.600;7.318;2023-03-22T02:10:45;100617.04;;;10.08;94.44
47811;BME280;33575;52.600;7.318;2023-03-22T02:13:25;100614.34;;;10.15;94.30
47811;BME280;33575;52.600;7.318;2023-03-22T02:15:52;100610.47;;;10.15;94.09
47811;BME280;33575;52.600;7.318;2023-03-22T02:18:27;100605.68;;;10.19;93.77
47811;BME280;33575;52.600;7.318;2023-03-22T02:28:28;100592.19;;;10.15;93.82
47811;BME280;33575;52.600;7.318;2023-03-22T02:31:01;100585.72;;;10.12;93.92
47811;BME280;33575;52.600;7.318;2023-03-22T02:36:07;100581.70;;;10.07;94.12
47811;BME280;33575;52.600;7.318;2023-03-22T02:40:54;100574.47;;;10.04;94.34
47811;BME280;33575;52.600;7.318;2023-03-22T02:43:28;100570.53;;;9.96;94.45
47811;BME280;33575;52.600;7.318;2023-03-22T02:45:55;100567.70;;;9.93;94.51
47811;BME280;33575;52.600;7.318;2023-03-22T02:48:26;100568.05;;;9.92;94.35
47811;BME280;33575;52.600;7.318;2023-03-22T02:50:55;100570.53;;;9.94;94.42
47811;BME280;33575;52.600;7.318;2023-03-22T02:53:27;100568.13;;;9.89;94.43
47811;BME280;33575;52.600;7.318;2023-03-22T02:55:58;100569.35;;;9.92;94.30
47811;BME280;33575;52.600;7.318;2023-03-22T02:58:27;100566.12;;;9.89;94.37
47811;BME280;33575;52.600;7.318;2023-03-22T03:00:59;100564.63;;;9.94;94.28
47811;BME280;33575;52.600;7.318;2023-03-22T03:03:27;100560.38;;;9.82;94.38
47811;BME280;33575;52.600;7.318;2023-03-22T03:05:58;100560.25;;;9.93;94.26
47811;BME280;33575;52.600;7.318;2023-03-22T03:08:27;100557.92;;;9.90;94.28
47811;BME280;33575;52.600;7.318;2023-03-22T03:10:57;100554.54;;;9.88;94.39
47811;BME280;33575;52.600;7.318;2023-03-22T03:13:27;100550.67;;;9.72;94.63
47811;BME280;33575;52.600;7.318;2023-03-22T03:16:00;100552.70;;;9.76;94.27
47811;BME280;33575;52.600;7.318;2023-03-22T03:18:37;100545.36;;;9.82;94.44
47811;BME280;33575;52.600;7.318;2023-03-22T03:21:03;100542.45;;;9.77;94.46
47811;BME280;33575;52.600;7.318;2023-03-22T03:23:36;100546.41;;;9.80;94.44
47811;BME280;33575;52.600;7.318;2023-03-22T03:26:03;100543.74;;;9.82;94.42
47811;BME280;33575;52.600;7.318;2023-03-22T03:28:35;100540.26;;;9.77;94.10
47811;BME280;33575;52.600;7.318;2023-03-22T03:31:07;100535.98;;;9.76;94.22
47811;BME280;33575;52.600;7.318;2023-03-22T03:33:32;100533.01;;;9.67;94.54
47811;BME280;33575;52.600;7.318;2023-03-22T03:36:06;100528.73;;;9.61;94.91
47811;BME280;33575;52.600;7.318;2023-03-22T03:38:35;100521.58;;;9.63;94.97
47811;BME280;33575;52.600;7.318;2023-03-22T03:41:05;100527.38;;;9.67;94.79
47811;BME280;33575;52.600;7.318;2023-03-22T03:43:34;100524.56;;;9.77;94.57
47811;BME280;33575;52.600;7.318;2023-03-22T03:46:05;100526.06;;;9.86;94.32
47811;BME280;33575;52.600;7.318;2023-03-22T03:48:37;100519.01;;;9.83;94.19
47811;BME280;33575;52.600;7.318;2023-03-22T03:51:05;100514.54;;;9.71;94.95
47811;BME280;33575;52.600;7.318;2023-03-22T03:53:35;100515.04;;;9.75;94.84
47811;BME280;33575;52.600;7.318;2023-03-22T03:56:07;100512.03;;;9.80;95.10
47811;BME280;33575;52.600;7.318;2023-03-22T03:58:37;100511.44;;;9.76;95.29
47811;BME280;33575;52.600;7.318;2023-03-22T04:01:07;100511.44;;;9.75;95.57
47811;BME280;33575;52.600;7.318;2023-03-22T04:03:37;100515.17;;;9.79;95.14
47811;BME280;33575;52.600;7.318;2023-03-22T04:06:08;100519.25;;;9.78;95.14
47811;BME280;33575;52.600;7.318;2023-03-22T04:08:38;100514.42;;;9.72;95.43
47811;BME280;33575;52.600;7.318;2023-03-22T04:11:09;100514.60;;;9.66;95.50
47811;BME280;33575;52.600;7.318;2023-03-22T04:13:39;100515.43;;;9.78;95.29
47811;BME280;33575;52.600;7.318;2023-03-22T04:16:10;100508.16;;;9.63;95.55
47811;BME280;33575;52.600;7.318;2023-03-22T04:18:40;100501.32;;;9.56;96.11
47811;BME280;33575;52.600;7.318;2023-03-22T04:21:10;100503.90;;;9.57;95.99
47811;BME280;33575;52.600;7.318;2023-03-22T04:23:41;100499.96;;;9.53;96.31
47811;BME280;33575;52.600;7.318;2023-03-22T04:26:12;100497.05;;;9.46;96.72
47811;BME280;33575;52.600;7.318;2023-03-22T04:28:43;100494.83;;;9.48;96.84
47811;BME280;33575;52.600;7.318;2023-03-22T04:31:14;100489.02;;;9.48;97.05
47811;BME280;33575;52.600;7.318;2023-03-22T04:33:43;100489.07;;;9.43;97.35
47811;BME280;33575;52.600;7.318;2023-03-22T04:36:14;100483.55;;;9.45;97.38
47811;BME280;33575;52.600;7.318;2023-03-22T04:38:44;100483.44;;;9.48;97.46
47811;BME280;33575;52.600;7.318;2023-03-22T04:41:15;100476.50;;;9.42;97.79
47811;BME280;33575;52.600;7.318;2023-03-22T04:43:45;100477.09;;;9.46;97.79
47811;BME280;33575;52.600;7.318;2023-03-22T04:46:15;100475.90;;;9.53;97.48
47811;BME280;33575;52.600;7.318;2023-03-22T04:48:45;100477.21;;;9.52;97.66
47811;BME280;33575;52.600;7.318;2023-03-22T04:51:16;100470.41;;;9.51;97.73
47811;BME280;33575;52.600;7.318;2023-03-22T04:53:47;100472.77;;;9.55;97.62
47811;BME280;33575;52.600;7.318;2023-03-22T04:56:17;100470.33;;;9.63;97.31
47811;BME280;33575;52.600;7.318;2023-03-22T04:58:47;100467.66;;;9.61;97.32
47811;BME280;33575;52.600;7.318;2023-03-22T05:01:18;100467.87;;;9.69;97.07
47811;BME280;33575;52.600;7.318;2023-03-22T05:03:48;100470.36;;;9.75;96.95
47811;BME280;33575;52.600;7.318;2023-03-22T05:06:19;100467.01;;;9.74;97.09
47811;BME280;33575;52.600;7.318;2023-03-22T05:08:50;100464.32;;;9.76;97.21
47811;BME280;33575;52.600;7.318;2023-03-22T05:11:20;100459.31;;;9.68;97.61
47811;BME280;33575;52.600;7.318;2023-03-22T05:13:50;100466.02;;;9.75;97.47
47811;BME280;33575;52.600;7.318;2023-03-22T05:16:21;100465.60;;;9.75;97.95
47811;BME280;33575;52.600;7.318;2023-03-22T05:18:51;100467.24;;;9.80;98.00
47811;BME280;33575;52.600;7.318;2023-03-22T05:21:23;100463.77;;;9.88;97.77
47811;BME280;33575;52.600;7.318;2023-03-22T05:23:53;100455.93;;;9.73;98.39
47811;BME280;33575;52.600;7.318;2023-03-22T05:26:22;100454.96;;;9.78;98.21
47811;BME280;33575;52.600;7.318;2023-03-22T05:28:52;100451.36;;;9.76;98.50
47811;BME280;33575;52.600;7.318;2023-03-22T05:31:22;100450.99;;;9.79;98.21
47811;BME280;33575;52.600;7.318;2023-03-22T05:33:53;100444.40;;;9.83;98.08
47811;BME280;33575;52.600;7.318;2023-03-22T05:36:24;100446.20;;;9.86;98.01
47811;BME280;33575;52.600;7.318;2023-03-22T05:38:54;100440.84;;;9.83;98.12
47811;BME280;33575;52.600;7.318;2023-03-22T05:41:24;100444.84;;;9.85;97.95
47811;BME280;33575;52.600;7.318;2023-03-22T05:43:54;100444.62;;;9.96;97.57
47811;BME280;33575;52.600;7.318;2023-03-22T05:46:25;100442.47;;;10.01;97.44
47811;BME280;33575;52.600;7.318;2023-03-22T05:48:55;100440.67;;;10.02;97.31
47811;BME280;33575;52.600;7.318;2023-03-22T05:51:26;100443.30;;;10.05;97.23
47811;BME280;33575;52.600;7.318;2023-03-22T05:53:56;100445.22;;;10.06;97.15
47811;BME280;33575;52.600;7.318;2023-03-22T05:56:27;100444.02;;;10.14;96.83
47811;BME280;33575;52.600;7.318;2023-03-22T05:58:57;100437.01;;;9.96;97.38
47811;BME280;33575;52.600;7.318;2023-03-22T06:01:28;100439.23;;;10.05;97.02
47811;BME280;33575;52.600;7.318;2023-03-22T06:03:59;100435.17;;;10.04;97.08
47811;BME280;33575;52.600;7.318;2023-03-22T06:06:29;100430.62;;;10.08;96.98
47811;BME280;33575;52.600;7.318;2023-03-22T06:09:05;100429.08;;;10.01;97.09
47811;BME280;33575;52.600;7.318;2023-03-22T06:11:30;100433.09;;;9.96;96.99
47811;BME280;33575;52.600;7.318;2023-03-22T06:14:00;100438.40;;;9.99;97.16
47811;BME280;33575;52.600;7.318;2023-03-22T06:16:31;100435.22;;;10.05;96.82
47811;BME280;33575;52.600;7.318;2023-03-22T06:19:01;100427.03;;;9.97;96.86
47811;BME280;33575;52.600;7.318;2023-03-22T06:21:32;100426.25;;;10.02;96.92
47811;BME280;33575;52.600;7.318;2023-03-22T06:24:02;100425.70;;;10.13;96.62
47811;BME280;33575;52.600;7.318;2023-03-22T06:26:32;100422.77;;;10.20;96.36
47811;BME280;33575;52.600;7.318;2023-03-22T06:29:03;100422.03;;;10.20;96.06
47811;BME280;33575;52.600;7.318;2023-03-22T06:31:34;100415.74;;;10.19;95.95
47811;BME280;33575;52.600;7.318;2023-03-22T06:34:05;100420.60;;;10.15;95.91
47811;BME280;33575;52.600;7.318;2023-03-22T06:36:34;100419.28;;;10.16;95.97
47811;BME280;33575;52.600;7.318;2023-03-22T06:39:05;100423.66;;;10.06;96.24
47811;BME280;33575;52.600;7.318;2023-03-22T06:41:35;100418.99;;;10.22;95.84
47811;BME280;33575;52.600;7.318;2023-03-22T06:44:06;100417.39;;;10.21;95.80
47811;BME280;33575;52.600;7.318;2023-03-22T06:46:36;100412.84;;;10.14;95.95
47811;BME280;33575;52.600;7.318;2023-03-22T06:49:06;100421.03;;;10.21;95.63
47811;BME280;33575;52.600;7.318;2023-03-22T06:51:37;100417.97;;;10.12;95.89
47811;BME280;33575;52.600;7.318;2023-03-22T06:54:07;100413.27;;;10.11;95.85
47811;BME280;33575;52.600;7.318;2023-03-22T06:56:38;100415.90;;;10.23;95.42
47811;BME280;33575;52.600;7.318;2023-03-22T06:59:08;100415.55;;;10.18;95.46
47811;BME280;33575;52.600;7.318;2023-03-22T07:01:39;100415.03;;;10.02;96.39
47811;BME280;33575;52.600;7.318;2023-03-22T07:04:09;100412.17;;;10.17;95.77
47811;BME280;33575;52.600;7.318;2023-03-22T07:06:40;100407.62;;;10.21;95.93
47811;BME280;33575;52.600;7.318;2023-03-22T07:09:10;100409.87;;;10.31;95.51
47811;BME280;33575;52.600;7.318;2023-03-22T07:11:41;100409.93;;;10.35;95.30
47811;BME280;33575;52.600;7.318;2023-03-22T07:14:11;100394.94;;;10.38;95.06
47811;BME280;33575;52.600;7.318;2023-03-22T07:16:42;100398.43;;;10.35;95.06
47811;BME280;33575;52.600;7.318;2023-03-22T07:19:12;100400.26;;;10.37;94.87
47811;BME280;33575;52.600;7.318;2023-03-22T07:21:43;100404.73;;;10.30;95.13
47811;BME280;33575;52.600;7.318;2023-03-22T07:24:13;100404.69;;;10.36;95.51
47811;BME280;33575;52.600;7.318;2023-03-22T07:26:44;100405.80;;;10.22;96.46
47811;BME280;33575;52.600;7.318;2023-03-22T07:29:14;100404.46;;;10.46;96.03
47811;BME280;33575;52.600;7.318;2023-03-22T07:31:45;100400.23;;;10.53;95.42
47811;BME280;33575;52.600;7.318;2023-03-22T07:34:15;100390.03;;;10.64;95.65
47811;BME280;33575;52.600;7.318;2023-03-22T07:36:46;100385.44;;;10.63;95.17
47811;BME280;33575;52.600;7.318;2023-03-22T07:39:16;100372.98;;;10.75;94.21
47811;BME280;33575;52.600;7.318;2023-03-22T07:41:47;100377.34;;;10.60;94.72
47811;BME280;33575;52.600;7.318;2023-03-22T07:44:19;100380.60;;;10.68;94.99
47811;BME280;33575;52.600;7.318;2023-03-22T07:46:48;100386.73;;;10.81;94.80
47811;BME280;33575;52.600;7.318;2023-03-22T07:49:19;100374.32;;;10.85;94.35
47811;BME280;33575;52.600;7.318;2023-03-22T07:51:49;100373.87;;;10.87;93.88
47811;BME280;33575;52.600;7.318;2023-03-22T07:54:24;100384.16;;;10.97;93.56
47811;BME280;33575;52.600;7.318;2023-03-22T07:56:50;100377.74;;;10.99;93.50
47811;BME280;33575;52.600;7.318;2023-03-22T07:59:21;100376.58;;;10.85;93.36
47811;BME280;33575;52.600;7.318;2023-03-22T08:01:51;100387.58;;;11.11;93.14
47811;BME280;33575;52.600;7.318;2023-03-22T08:04:22;100391.17;;;11.15;92.27
47811;BME280;33575;52.600;7.318;2023-03-22T08:06:52;100384.11;;;11.09;92.42
47811;BME280;33575;52.600;7.318;2023-03-22T08:09:23;100392.85;;;11.13;92.50
47811;BME280;33575;52.600;7.318;2023-03-22T08:11:53;100399.93;;;11.28;92.03
47811;BME280;33575;52.600;7.318;2023-03-22T08:14:29;100401.51;;;11.33;91.43
47811;BME280;33575;52.600;7.318;2023-03-22T08:16:54;100397.34;;;11.37;90.68
47811;BME280;33575;52.600;7.318;2023-03-22T08:19:24;100400.62;;;11.42;91.00
47811;BME280;33575;52.600;7.318;2023-03-22T08:21:55;100396.49;;;11.53;91.01
47811;BME280;33575;52.600;7.318;2023-03-22T08:24:25;100389.23;;;11.32;90.69
47811;BME280;33575;52.600;7.318;2023-03-22T08:26:56;100390.31;;;11.44;89.24
47811;BME280;33575;52.600;7.318;2023-03-22T08:29:26;100398.76;;;11.47;89.79
47811;BME280;33575;52.600;7.318;2023-03-22T08:31:57;100389.91;;;11.54;89.46
47811;BME280;33575;52.600;7.318;2023-03-22T08:34:27;100397.36;;;11.45;89.79
47811;BME280;33575;52.600;7.318;2023-03-22T08:36:58;100393.17;;;11.43;90.14
47811;BME280;33575;52.600;7.318;2023-03-22T08:39:28;100392.96;;;11.52;89.69
47811;BME280;33575;52.600;7.318;2023-03-22T08:41:59;100394.57;;;11.46;88.69
47811;BME280;33575;52.600;7.318;2023-03-22T08:44:29;100382.71;;;11.42;89.43
47811;BME280;33575;52.600;7.318;2023-03-22T08:46:59;100382.94;;;11.40;88.97
47811;BME280;33575;52.600;7.318;2023-03-22T08:49:30;100379.42;;;11.45;89.12
47811;BME280;33575;52.600;7.318;2023-03-22T08:52:00;100385.89;;;11.48;89.25
47811;BME280;33575;52.600;7.318;2023-03-22T08:54:31;100391.00;;;11.41;88.50
47811;BME280;33575;52.600;7.318;2023-03-22T08:57:01;100395.68;;;11.55;89.50
47811;BME280;33575;52.600;7.318;2023-03-22T08:59:32;100393.78;;;11.61;88.62
47811;BME280;33575;52.600;7.318;2023-03-22T09:02:03;100393.04;;;11.55;88.00
47811;BME280;33575;52.600;7.318;2023-03-22T09:04:33;100402.07;;;11.67;88.64
47811;BME280;33575;52.600;7.318;2023-03-22T09:07:03;100394.28;;;11.61;88.85
47811;BME280;33575;52.600;7.318;2023-03-22T09:09:34;100392.74;;;11.51;88.90
47811;BME280;33575;52.600;7.318;2023-03-22T09:12:04;100398.37;;;11.64;89.23
47811;BME280;33575;52.600;7.318;2023-03-22T09:14:35;100393.88;;;11.53;89.24
47811;BME280;33575;52.600;7.318;2023-03-22T09:17:05;100393.06;;;11.48;89.18
47811;BME280;33575;52.600;7.318;2023-03-22T09:19:37;100399.23;;;11.49;88.69
47811;BME280;33575;52.600;7.318;2023-03-22T09:22:06;100391.23;;;11.22;89.00
47811;BME280;33575;52.600;7.318;2023-03-22T09:24:36;100397.31;;;11.31;88.85
47811;BME280;33575;52.600;7.318;2023-03-22T09:27:06;100394.69;;;11.41;88.89
47811;BME280;33575;52.600;7.318;2023-03-22T09:29:37;100391.12;;;11.36;89.29
47811;BME280;33575;52.600;7.318;2023-03-22T09:32:07;100386.45;;;11.47;89.18
47811;BME280;33575;52.600;7.318;2023-03-22T09:34:37;100382.79;;;11.55;88.82
47811;BME280;33575;52.600;7.318;2023-03-22T09:37:08;100388.50;;;11.55;88.89
47811;BME280;33575;52.600;7.318;2023-03-22T09:39:39;100381.14;;;11.51;88.55
47811;BME280;33575;52.600;7.318;2023-03-22T09:42:19;100387.62;;;11.58;88.97
47811;BME280;33575;52.600;7.318;2023-03-22T09:44:41;100373.96;;;11.62;89.20
47811;BME280;33575;52.600;7.318;2023-03-22T09:47:15;100361.61;;;11.54;89.18
47811;BME280;33575;52.600;7.318;2023-03-22T09:49:48;100362.96;;;11.67;89.42
47811;BME280;33575;52.600;7.318;2023-03-22T09:52:14;100361.64;;;11.74;90.17
47811;BME280;33575;52.600;7.318;2023-03-22T09:54:42;100355.76;;;11.84;89.55
47811;BME280;33575;52.600;7.318;2023-03-22T09:57:19;100355.08;;;11.92;89.82
47811;BME280;33575;52.600;7.318;2023-03-22T09:59:46;100355.23;;;12.05;89.88
47811;BME280;33575;52.600;7.318;2023-03-22T10:02:23;100354.09;;;12.04;88.49
47811;BME280;33575;52.600;7.318;2023-03-22T10:04:52;100354.72;;;12.23;88.77
47811;BME280;33575;52.600;7.318;2023-03-22T10:07:21;100351.05;;;12.19;88.42
47811;BME280;33575;52.600;7.318;2023-03-22T10:09:48;100344.58;;;12.13;87.45
47811;BME280;33575;52.600;7.318;2023-03-22T10:12:19;100348.29;;;11.93;88.22
47811;BME280;33575;52.600;7.318;2023-03-22T10:14:49;100347.16;;;11.98;87.97
47811;BME280;33575;52.600;7.318;2023-03-22T10:17:17;100358.79;;;12.12;88.10
47811;BME280;33575;52.600;7.318;2023-03-22T10:19:51;100339.53;;;12.09;87.96
47811;BME280;33575;52.600;7.318;2023-03-22T10:22:18;100360.01;;;12.11;87.91
47811;BME280;33575;52.600;7.318;2023-03-22T10:24:48;100354.28;;;12.16;88.07
47811;BME280;33575;52.600;7.318;2023-03-22T10:27:19;100350.19;;;12.20;86.94
47811;BME280;33575;52.600;7.318;2023-03-22T10:29:50;100356.33;;;12.34;86.34
47811;BME280;33575;52.600;7.318;2023-03-22T10:32:19;100353.49;;;12.27;85.51
47811;BME280;33575;52.600;7.318;2023-03-22T10:34:47;100358.28;;;12.39;85.71
47811;BME280;33575;52.600;7.318;2023-03-22T10:37:21;100350.39;;;12.23;85.71
47811;BME280;33575;52.600;7.318;2023-03-22T10:39:50;100354.66;;;12.20;85.74
47811;BME280;33575;52.600;7.318;2023-03-22T10:42:22;100355.93;;;12.21;86.13
47811;BME280;33575;52.600;7.318;2023-03-22T10:44:52;100358.90;;;12.35;85.79
47811;BME280;33575;52.600;7.318;2023-03-22T10:47:26;100360.02;;;12.42;86.18
47811;BME280;33575;52.600;7.318;2023-03-22T10:49:51;100358.39;;;12.31;85.93
47811;BME280;33575;52.600;7.318;2023-03-22T10:52:33;100362.32;;;12.41;85.93
47811;BME280;33575;52.600;7.318;2023-03-22T10:54:51;100366.19;;;12.30;86.10
47811;BME280;33575;52.600;7.318;2023-03-22T10:57:21;100354.39;;;12.33;84.47
47811;BME280;33575;52.600;7.318;2023-03-22T10:59:54;100359.21;;;12.23;84.75
47811;BME280;33575;52.600;7.318;2023-03-22T11:02:25;100361.35;;;12.15;84.87
47811;BME280;33575;52.600;7.318;2023-03-22T11:04:54;100361.89;;;12.07;84.65
47811;BME280;33575;52.600;7.318;2023-03-22T11:07:29;100360.91;;;12.15;84.82
47811;BME280;33575;52.600;7.318;2023-03-22T11:09:58;100358.46;;;12.14;84.74
47811;BME280;33575;52.600;7.318;2023-03-22T11:12:22;100365.72;;;12.07;85.72
47811;BME280;33575;52.600;7.318;2023-03-22T11:14:52;100366.06;;;12.01;86.98
47811;BME280;33575;52.600;7.318;2023-03-22T11:17:23;100369.93;;;12.08;88.31
47811;BME280;33575;52.600;7.318;2023-03-22T11:19:56;100370.37;;;12.17;88.62
47811;BME280;33575;52.600;7.318;2023-03-22T11:22:25;100369.09;;;12.07;90.05
47811;BME280;33575;52.600;7.318;2023-03-22T11:24:54;100374.61;;;12.07;90.93
47811;BME280;33575;52.600;7.318;2023-03-22T11:27:26;100375.97;;;12.03;91.98
47811;BME280;33575;52.600;7.318;2023-03-22T11:29:58;100374.34;;;12.03;91.16
47811;BME280;33575;52.600;7.318;2023-03-22T11:32:27;100379.60;;;12.01;91.72
47811;BME280;33575;52.600;7.318;2023-03-22T11:35:00;100382.94;;;12.02;91.51
47811;BME280;33575;52.600;7.318;2023-03-22T11:37:26;100383.61;;;12.00;92.44
47811;BME280;33575;52.600;7.318;2023-03-22T11:40:00;100382.52;;;12.03;92.60
47811;BME280;33575;52.600;7.318;2023-03-22T11:42:27;100380.81;;;11.95;93.73
47811;BME280;33575;52.600;7.318;2023-03-22T11:44:58;100382.44;;;11.92;93.98
47811;BME280;33575;52.600;7.318;2023-03-22T11:47:33;100377.91;;;11.91;93.55
47811;BME280;33575;52.600;7.318;2023-03-22T11:50:03;100372.73;;;11.92;94.01
47811;BME280;33575;52.600;7.318;2023-03-22T11:52:28;100370.21;;;11.95;94.69
47811;BME280;33575;52.600;7.318;2023-03-22T11:55:00;100365.47;;;12.02;94.91
47811;BME280;33575;52.600;7.318;2023-03-22T11:57:33;100362.39;;;12.05;94.47
47811;BME280;33575;52.600;7.318;2023-03-22T12:00:03;100366.02;;;12.08;94.84
47811;BME280;33575;52.600;7.318;2023-03-22T12:02:34;100366.84;;;12.18;94.23
47811;BME280;33575;52.600;7.318;2023-03-22T12:05:05;100365.63;;;12.14;94.80
47811;BME280;33575;52.600;7.318;2023-03-22T12:07:34;100365.88;;;12.12;94.35
47811;BME280;33575;52.600;7.318;2023-03-22T12:10:06;100359.83;;;12.22;92.59
47811;BME280;33575;52.600;7.318;2023-03-22T12:12:37;100358.05;;;12.29;92.23
47811;BME280;33575;52.600;7.318;2023-03-22T12:15:09;100363.11;;;12.17;93.73
47811;BME280;33575;52.600;7.318;2023-03-22T12:17:37;100363.32;;;12.23;92.87
47811;BME280;33575;52.600;7.318;2023-03-22T12:20:15;100360.44;;;12.32;92.90
47811;BME280;33575;52.600;7.318;2023-03-22T12:22:36;100361.51;;;12.41;93.09
47811;BME280;33575;52.600;7.318;2023-03-22T12:25:11;100359.99;;;12.28;93.20
47811;BME280;33575;52.600;7.318;2023-03-22T12:27:37;100367.96;;;12.45;92.78
47811;BME280;33575;52.600;7.318;2023-03-22T12:30:12;100369.34;;;12.45;91.72
47811;BME280;33575;52.600;7.318;2023-03-22T12:32:41;100368.92;;;12.37;90.99
47811;BME280;33575;52.600;7.318;2023-03-22T12:35:15;100364.80;;;12.24;90.34
47811;BME280;33575;52.600;7.318;2023-03-22T12:37:38;100346.13;;;12.19;91.19
47811;BME280;33575;52.600;7.318;2023-03-22T12:40:17;100345.54;;;12.12;91.71
47811;BME280;33575;52.600;7.318;2023-03-22T12:42:49;100339.95;;;12.17;91.45
47811;BME280;33575;52.600;7.318;2023-03-22T12:45:13;100328.21;;;11.76;91.29
47811;BME280;33575;52.600;7.318;2023-03-22T12:47:41;100325.71;;;11.84;91.14
47811;BME280;33575;52.600;7.318;2023-03-22T12:50:13;100337.62;;;11.75;91.27
47811;BME280;33575;52.600;7.318;2023-03-22T12:52:47;100339.25;;;11.64;89.21
47811;BME280;33575;52.600;7.318;2023-03-22T12:55:19;100349.96;;;11.47;88.33
47811;BME280;33575;52.600;7.318;2023-03-22T12:57:41;100352.72;;;11.32;89.30
47811;BME280;33575;52.600;7.318;2023-03-22T13:00:14;100368.86;;;11.27;90.20
47811;BME280;33575;52.600;7.318;2023-03-22T13:02:48;100360.95;;;11.22;89.19
47811;BME280;33575;52.600;7.318;2023-03-22T13:05:13;100364.71;;;11.27;89.64
47811;BME280;33575;52.600;7.318;2023-03-22T13:07:50;100366.06;;;11.15;91.03
47811;BME280;33575;52.600;7.318;2023-03-22T13:17:46;100379.72;;;11.38;91.12
47811;BME280;33575;52.600;7.318;2023-03-22T13:20:23;100381.97;;;11.43;89.69
47811;BME280;33575;52.600;7.318;2023-03-22T13:25:26;100381.75;;;11.34;94.10
47811;BME280;33575;52.600;7.318;2023-03-22T13:27:51;100376.95;;;11.26;94.97
47811;BME280;33575;52.600;7.318;2023-03-22T13:30:23;100383.91;;;11.42;92.48